sensor_id;sensor_type;location;lat;lon;timestamp;P1;durP1;ratioP1;P2;durP2;ratioP2
51374;SDS011;37465;52.738;4.752;2023-12-29T00:00:51;31.15;;;5.22;;
51374;SDS011;37465;52.738;4.752;2023-12-29T00:03:19;39.80;;;7.53;;
51374;SDS011;37465;52.738;4.752;2023-12-29T00:05:46;34.55;;;4.70;;
51374;SDS011;37465;52.738;4.752;2023-12-29T00:08:14;33.17;;;5.43;;
51374;SDS011;37465;52.738;4.752;2023-12-29T00:10:42;43.30;;;6.38;;
51374;SDS011;37465;52.738;4.752;2023-12-29T00:13:10;39.70;;;7.57;;
51374;SDS011;37465;52.738;4.752;2023-12-29T00:15:38;40.88;;;6.38;;
51374;SDS011;37465;52.738;4.752;2023-12-29T00:18:07;42.60;;;6.93;;
51374;SDS011;37465;52.738;4.752;2023-12-29T00:20:34;43.33;;;6.88;;
51374;SDS011;37465;52.738;4.752;2023-12-29T00:23:07;35.88;;;7.00;;
51374;SDS011;37465;52.738;4.752;2023-12-29T00:25:35;48.08;;;7.68;;
51374;SDS011;37465;52.738;4.752;2023-12-29T00:28:03;52.38;;;8.02;;
51374;SDS011;37465;52.738;4.752;2023-12-29T00:30:31;55.17;;;8.05;;
51374;SDS011;37465;52.738;4.752;2023-12-29T00:33:20;51.80;;;8.30;;
51374;SDS011;37465;52.738;4.752;2023-12-29T00:35:47;53.78;;;8.13;;
51374;SDS011;37465;52.738;4.752;2023-12-29T00:38:15;46.50;;;8.43;;
51374;SDS011;37465;52.738;4.752;2023-12-29T00:40:42;49.65;;;7.50;;
51374;SDS011;37465;52.738;4.752;2023-12-29T00:43:10;60.10;;;9.18;;
51374;SDS011;37465;52.738;4.752;2023-12-29T00:45:38;59.42;;;8.93;;
51374;SDS011;37465;52.738;4.752;2023-12-29T00:48:06;51.35;;;7.90;;
51374;SDS011;37465;52.738;4.752;2023-12-29T00:50:35;44.75;;;8.00;;
51374;SDS011;37465;52.738;4.752;2023-12-29T00:53:03;57.13;;;8.23;;
51374;SDS011;37465;52.738;4.752;2023-12-29T00:55:30;45.05;;;8.35;;
51374;SDS011;37465;52.738;4.752;2023-12-29T00:57:58;55.67;;;8.40;;
51374;SDS011;37465;52.738;4.752;2023-12-29T01:00:26;53.08;;;8.30;;
51374;SDS011;37465;52.738;4.752;2023-12-29T01:02:54;53.60;;;9.05;;
51374;SDS011;37465;52.738;4.752;2023-12-29T01:05:21;52.72;;;7.95;;
51374;SDS011;37465;52.738;4.752;2023-12-29T01:07:50;59.38;;;7.68;;
51374;SDS011;37465;52.738;4.752;2023-12-29T01:10:18;51.63;;;7.60;;
51374;SDS011;37465;52.738;4.752;2023-12-29T01:12:45;50.53;;;8.23;;
51374;SDS011;37465;52.738;4.752;2023-12-29T01:15:13;46.95;;;8.77;;
51374;SDS011;37465;52.738;4.752;2023-12-29T01:17:41;46.05;;;7.13;;
51374;SDS011;37465;52.738;4.752;2023-12-29T01:20:09;55.10;;;8.75;;
51374;SDS011;37465;52.738;4.752;2023-12-29T01:22:36;45.60;;;7.50;;
51374;SDS011;37465;52.738;4.752;2023-12-29T01:25:06;49.72;;;8.43;;
51374;SDS011;37465;52.738;4.752;2023-12-29T01:27:33;42.03;;;6.65;;
51374;SDS011;37465;52.738;4.752;2023-12-29T01:30:01;45.10;;;7.60;;
51374;SDS011;37465;52.738;4.752;2023-12-29T01:32:28;47.15;;;7.00;;
51374;SDS011;37465;52.738;4.752;2023-12-29T01:34:56;42.05;;;6.80;;
51374;SDS011;37465;52.738;4.752;2023-12-29T01:37:23;42.47;;;6.45;;
51374;SDS011;37465;52.738;4.752;2023-12-29T01:39:51;43.38;;;7.63;;
51374;SDS011;37465;52.738;4.752;2023-12-29T01:42:20;50.70;;;7.00;;
51374;SDS011;37465;52.738;4.752;2023-12-29T01:44:47;45.38;;;6.78;;
51374;SDS011;37465;52.738;4.752;2023-12-29T01:47:18;41.55;;;6.70;;
51374;SDS011;37465;52.738;4.752;2023-12-29T01:49:46;46.17;;;6.50;;
51374;SDS011;37465;52.738;4.752;2023-12-29T01:52:15;44.75;;;7.57;;
51374;SDS011;37465;52.738;4.752;2023-12-29T01:54:43;53.35;;;8.57;;
51374;SDS011;37465;52.738;4.752;2023-12-29T01:57:12;44.47;;;7.45;;
51374;SDS011;37465;52.738;4.752;2023-12-29T01:59:41;51.08;;;7.60;;
51374;SDS011;37465;52.738;4.752;2023-12-29T02:02:11;53.38;;;8.98;;
51374;SDS011;37465;52.738;4.752;2023-12-29T02:04:39;45.58;;;7.00;;
51374;SDS011;37465;52.738;4.752;2023-12-29T02:07:08;52.92;;;7.55;;
51374;SDS011;37465;52.738;4.752;2023-12-29T02:09:36;45.00;;;7.55;;
51374;SDS011;37465;52.738;4.752;2023-12-29T02:12:04;44.60;;;6.65;;
51374;SDS011;37465;52.738;4.752;2023-12-29T02:14:31;45.55;;;7.47;;
51374;SDS011;37465;52.738;4.752;2023-12-29T02:17:04;51.97;;;7.38;;
51374;SDS011;37465;52.738;4.752;2023-12-29T02:19:36;44.33;;;6.75;;
51374;SDS011;37465;52.738;4.752;2023-12-29T02:22:05;39.85;;;6.90;;
51374;SDS011;37465;52.738;4.752;2023-12-29T02:24:33;44.20;;;6.80;;
51374;SDS011;37465;52.738;4.752;2023-12-29T02:27:05;33.70;;;5.97;;
51374;SDS011;37465;52.738;4.752;2023-12-29T02:29:34;39.15;;;5.93;;
51374;SDS011;37465;52.738;4.752;2023-12-29T02:32:04;30.85;;;5.30;;
51374;SDS011;37465;52.738;4.752;2023-12-29T02:34:34;30.27;;;4.85;;
51374;SDS011;37465;52.738;4.752;2023-12-29T02:37:02;25.35;;;4.75;;
51374;SDS011;37465;52.738;4.752;2023-12-29T02:39:29;35.65;;;5.20;;
51374;SDS011;37465;52.738;4.752;2023-12-29T02:41:57;33.75;;;4.72;;
51374;SDS011;37465;52.738;4.752;2023-12-29T02:44:26;28.08;;;4.75;;
51374;SDS011;37465;52.738;4.752;2023-12-29T02:46:53;27.25;;;5.80;;
51374;SDS011;37465;52.738;4.752;2023-12-29T02:49:21;29.42;;;4.70;;
51374;SDS011;37465;52.738;4.752;2023-12-29T02:51:48;25.45;;;5.40;;
51374;SDS011;37465;52.738;4.752;2023-12-29T02:54:16;31.77;;;4.60;;
51374;SDS011;37465;52.738;4.752;2023-12-29T02:56:44;28.17;;;5.78;;
51374;SDS011;37465;52.738;4.752;2023-12-29T02:59:11;28.33;;;5.13;;
51374;SDS011;37465;52.738;4.752;2023-12-29T03:01:40;27.70;;;5.18;;
51374;SDS011;37465;52.738;4.752;2023-12-29T03:04:08;23.13;;;4.78;;
51374;SDS011;37465;52.738;4.752;2023-12-29T03:06:36;29.58;;;5.07;;
51374;SDS011;37465;52.738;4.752;2023-12-29T03:09:04;23.80;;;4.28;;
51374;SDS011;37465;52.738;4.752;2023-12-29T03:11:31;28.20;;;4.75;;
51374;SDS011;37465;52.738;4.752;2023-12-29T03:13:59;27.20;;;5.75;;
51374;SDS011;37465;52.738;4.752;2023-12-29T03:16:26;37.08;;;5.40;;
51374;SDS011;37465;52.738;4.752;2023-12-29T03:18:55;28.23;;;4.50;;
51374;SDS011;37465;52.738;4.752;2023-12-29T03:21:23;32.80;;;5.05;;
51374;SDS011;37465;52.738;4.752;2023-12-29T03:23:50;26.92;;;4.63;;
51374;SDS011;37465;52.738;4.752;2023-12-29T03:26:18;26.92;;;5.53;;
51374;SDS011;37465;52.738;4.752;2023-12-29T03:28:45;27.85;;;5.32;;
51374;SDS011;37465;52.738;4.752;2023-12-29T03:31:13;28.73;;;5.72;;
51374;SDS011;37465;52.738;4.752;2023-12-29T03:33:41;26.45;;;4.50;;
51374;SDS011;37465;52.738;4.752;2023-12-29T03:36:10;22.75;;;4.60;;
51374;SDS011;37465;52.738;4.752;2023-12-29T03:38:37;24.13;;;4.65;;
51374;SDS011;37465;52.738;4.752;2023-12-29T03:41:05;18.50;;;4.72;;
51374;SDS011;37465;52.738;4.752;2023-12-29T03:43:32;29.52;;;5.97;;
51374;SDS011;37465;52.738;4.752;2023-12-29T03:46:00;23.55;;;4.13;;
51374;SDS011;37465;52.738;4.752;2023-12-29T03:48:27;25.50;;;4.85;;
51374;SDS011;37465;52.738;4.752;2023-12-29T03:50:55;29.13;;;5.13;;
51374;SDS011;37465;52.738;4.752;2023-12-29T03:53:24;18.23;;;4.03;;
51374;SDS011;37465;52.738;4.752;2023-12-29T03:55:52;34.10;;;4.83;;
51374;SDS011;37465;52.738;4.752;2023-12-29T03:58:19;26.85;;;4.43;;
51374;SDS011;37465;52.738;4.752;2023-12-29T04:00:47;23.23;;;4.30;;
51374;SDS011;37465;52.738;4.752;2023-12-29T04:03:14;24.70;;;4.75;;
51374;SDS011;37465;52.738;4.752;2023-12-29T04:05:42;29.48;;;5.20;;
51374;SDS011;37465;52.738;4.752;2023-12-29T04:08:09;21.35;;;4.75;;
51374;SDS011;37465;52.738;4.752;2023-12-29T04:10:39;28.65;;;4.45;;
51374;SDS011;37465;52.738;4.752;2023-12-29T04:13:07;29.15;;;4.80;;
51374;SDS011;37465;52.738;4.752;2023-12-29T04:15:35;27.77;;;5.35;;
51374;SDS011;37465;52.738;4.752;2023-12-29T04:18:03;28.10;;;5.15;;
51374;SDS011;37465;52.738;4.752;2023-12-29T04:20:31;25.92;;;5.18;;
51374;SDS011;37465;52.738;4.752;2023-12-29T04:22:58;26.20;;;4.57;;
51374;SDS011;37465;52.738;4.752;2023-12-29T04:25:26;23.90;;;4.68;;
51374;SDS011;37465;52.738;4.752;2023-12-29T04:27:55;31.23;;;4.45;;
51374;SDS011;37465;52.738;4.752;2023-12-29T04:30:23;21.90;;;5.40;;
51374;SDS011;37465;52.738;4.752;2023-12-29T04:32:51;25.50;;;4.03;;
51374;SDS011;37465;52.738;4.752;2023-12-29T04:35:18;28.95;;;5.10;;
51374;SDS011;37465;52.738;4.752;2023-12-29T04:37:46;27.15;;;5.32;;
51374;SDS011;37465;52.738;4.752;2023-12-29T04:40:13;22.92;;;5.03;;
51374;SDS011;37465;52.738;4.752;2023-12-29T04:42:41;29.88;;;5.25;;
51374;SDS011;37465;52.738;4.752;2023-12-29T04:45:10;27.85;;;4.28;;
51374;SDS011;37465;52.738;4.752;2023-12-29T04:47:38;20.75;;;4.65;;
51374;SDS011;37465;52.738;4.752;2023-12-29T04:50:06;28.00;;;4.55;;
51374;SDS011;37465;52.738;4.752;2023-12-29T04:52:34;25.30;;;4.18;;
51374;SDS011;37465;52.738;4.752;2023-12-29T04:55:01;24.77;;;4.32;;
51374;SDS011;37465;52.738;4.752;2023-12-29T04:57:29;27.25;;;4.25;;
51374;SDS011;37465;52.738;4.752;2023-12-29T04:59:56;26.40;;;4.28;;
51374;SDS011;37465;52.738;4.752;2023-12-29T05:02:25;26.55;;;5.07;;
51374;SDS011;37465;52.738;4.752;2023-12-29T05:04:53;27.13;;;4.95;;
51374;SDS011;37465;52.738;4.752;2023-12-29T05:07:21;24.02;;;4.25;;
51374;SDS011;37465;52.738;4.752;2023-12-29T05:09:48;29.10;;;5.32;;
51374;SDS011;37465;52.738;4.752;2023-12-29T05:12:16;18.48;;;4.25;;
51374;SDS011;37465;52.738;4.752;2023-12-29T05:14:43;27.85;;;4.65;;
51374;SDS011;37465;52.738;4.752;2023-12-29T05:17:11;29.63;;;5.88;;
51374;SDS011;37465;52.738;4.752;2023-12-29T05:19:39;34.58;;;5.05;;
51374;SDS011;37465;52.738;4.752;2023-12-29T05:22:07;26.65;;;5.40;;
51374;SDS011;37465;52.738;4.752;2023-12-29T05:24:35;28.80;;;5.57;;
51374;SDS011;37465;52.738;4.752;2023-12-29T05:27:03;28.38;;;5.70;;
51374;SDS011;37465;52.738;4.752;2023-12-29T05:29:30;28.90;;;4.78;;
51374;SDS011;37465;52.738;4.752;2023-12-29T05:31:58;26.67;;;5.05;;
51374;SDS011;37465;52.738;4.752;2023-12-29T05:34:25;34.35;;;5.75;;
51374;SDS011;37465;52.738;4.752;2023-12-29T05:36:54;27.15;;;5.45;;
51374;SDS011;37465;52.738;4.752;2023-12-29T05:39:22;25.67;;;5.22;;
51374;SDS011;37465;52.738;4.752;2023-12-29T05:41:50;25.90;;;4.00;;
51374;SDS011;37465;52.738;4.752;2023-12-29T05:44:18;25.63;;;4.60;;
51374;SDS011;37465;52.738;4.752;2023-12-29T05:46:46;30.80;;;4.63;;
51374;SDS011;37465;52.738;4.752;2023-12-29T05:49:14;29.30;;;6.38;;
51374;SDS011;37465;52.738;4.752;2023-12-29T05:51:41;27.25;;;5.07;;
51374;SDS011;37465;52.738;4.752;2023-12-29T05:54:11;31.38;;;5.63;;
51374;SDS011;37465;52.738;4.752;2023-12-29T05:56:39;26.80;;;3.95;;
51374;SDS011;37465;52.738;4.752;2023-12-29T05:59:06;27.00;;;5.72;;
51374;SDS011;37465;52.738;4.752;2023-12-29T06:01:34;25.58;;;4.72;;
51374;SDS011;37465;52.738;4.752;2023-12-29T06:04:02;25.08;;;4.47;;
51374;SDS011;37465;52.738;4.752;2023-12-29T06:06:30;30.98;;;5.35;;
51374;SDS011;37465;52.738;4.752;2023-12-29T06:08:57;32.58;;;4.82;;
51374;SDS011;37465;52.738;4.752;2023-12-29T06:11:26;27.90;;;5.38;;
51374;SDS011;37465;52.738;4.752;2023-12-29T06:13:54;30.15;;;5.55;;
51374;SDS011;37465;52.738;4.752;2023-12-29T06:16:22;30.38;;;5.10;;
51374;SDS011;37465;52.738;4.752;2023-12-29T06:18:51;29.92;;;4.88;;
51374;SDS011;37465;52.738;4.752;2023-12-29T06:21:18;29.38;;;4.40;;
51374;SDS011;37465;52.738;4.752;2023-12-29T06:23:46;31.42;;;6.28;;
51374;SDS011;37465;52.738;4.752;2023-12-29T06:26:14;26.88;;;4.53;;
51374;SDS011;37465;52.738;4.752;2023-12-29T06:28:44;31.88;;;5.57;;
51374;SDS011;37465;52.738;4.752;2023-12-29T06:31:12;29.48;;;5.53;;
51374;SDS011;37465;52.738;4.752;2023-12-29T06:33:40;30.60;;;4.85;;
51374;SDS011;37465;52.738;4.752;2023-12-29T06:36:08;35.15;;;4.72;;
51374;SDS011;37465;52.738;4.752;2023-12-29T06:38:36;30.02;;;5.53;;
51374;SDS011;37465;52.738;4.752;2023-12-29T06:41:03;32.92;;;5.32;;
51374;SDS011;37465;52.738;4.752;2023-12-29T06:43:30;25.75;;;5.47;;
51374;SDS011;37465;52.738;4.752;2023-12-29T06:45:59;27.17;;;4.90;;
51374;SDS011;37465;52.738;4.752;2023-12-29T06:48:27;27.20;;;4.88;;
51374;SDS011;37465;52.738;4.752;2023-12-29T06:50:55;29.17;;;5.25;;
51374;SDS011;37465;52.738;4.752;2023-12-29T06:53:22;29.30;;;5.07;;
51374;SDS011;37465;52.738;4.752;2023-12-29T06:55:50;29.58;;;5.60;;
51374;SDS011;37465;52.738;4.752;2023-12-29T06:58:17;28.40;;;5.15;;
51374;SDS011;37465;52.738;4.752;2023-12-29T07:00:45;25.80;;;5.65;;
51374;SDS011;37465;52.738;4.752;2023-12-29T07:03:14;32.47;;;5.40;;
51374;SDS011;37465;52.738;4.752;2023-12-29T07:05:42;27.67;;;5.57;;
51374;SDS011;37465;52.738;4.752;2023-12-29T07:08:12;30.45;;;5.28;;
51374;SDS011;37465;52.738;4.752;2023-12-29T07:13:07;31.58;;;4.85;;
51374;SDS011;37465;52.738;4.752;2023-12-29T07:15:35;28.95;;;4.55;;
51374;SDS011;37465;52.738;4.752;2023-12-29T07:18:04;26.83;;;4.53;;
51374;SDS011;37465;52.738;4.752;2023-12-29T07:20:33;31.70;;;4.97;;
51374;SDS011;37465;52.738;4.752;2023-12-29T07:23:01;30.67;;;5.18;;
51374;SDS011;37465;52.738;4.752;2023-12-29T07:25:28;29.75;;;4.88;;
51374;SDS011;37465;52.738;4.752;2023-12-29T07:27:56;24.73;;;5.70;;
51374;SDS011;37465;52.738;4.752;2023-12-29T07:30:24;32.10;;;6.00;;
51374;SDS011;37465;52.738;4.752;2023-12-29T07:32:52;36.75;;;5.90;;
51374;SDS011;37465;52.738;4.752;2023-12-29T07:35:20;31.33;;;5.72;;
51374;SDS011;37465;52.738;4.752;2023-12-29T07:37:49;28.95;;;4.80;;
51374;SDS011;37465;52.738;4.752;2023-12-29T07:40:17;34.33;;;7.43;;
51374;SDS011;37465;52.738;4.752;2023-12-29T07:42:45;26.02;;;5.00;;
51374;SDS011;37465;52.738;4.752;2023-12-29T07:45:16;31.80;;;5.18;;
51374;SDS011;37465;52.738;4.752;2023-12-29T07:47:44;31.75;;;5.07;;
51374;SDS011;37465;52.738;4.752;2023-12-29T07:50:12;31.63;;;4.93;;
51374;SDS011;37465;52.738;4.752;2023-12-29T07:52:41;26.42;;;4.80;;
51374;SDS011;37465;52.738;4.752;2023-12-29T07:55:11;23.67;;;3.92;;
51374;SDS011;37465;52.738;4.752;2023-12-29T07:57:39;28.02;;;4.90;;
51374;SDS011;37465;52.738;4.752;2023-12-29T08:00:07;27.92;;;5.07;;
51374;SDS011;37465;52.738;4.752;2023-12-29T08:02:34;26.13;;;4.78;;
51374;SDS011;37465;52.738;4.752;2023-12-29T08:05:02;29.83;;;5.80;;
51374;SDS011;37465;52.738;4.752;2023-12-29T08:07:30;33.00;;;6.20;;
51374;SDS011;37465;52.738;4.752;2023-12-29T08:09:58;26.27;;;5.45;;
51374;SDS011;37465;52.738;4.752;2023-12-29T08:12:27;31.13;;;4.85;;
51374;SDS011;37465;52.738;4.752;2023-12-29T08:14:55;34.25;;;5.57;;
51374;SDS011;37465;52.738;4.752;2023-12-29T08:17:22;36.60;;;5.60;;
51374;SDS011;37465;52.738;4.752;2023-12-29T08:19:50;27.52;;;4.72;;
51374;SDS011;37465;52.738;4.752;2023-12-29T08:22:18;19.80;;;4.28;;
51374;SDS011;37465;52.738;4.752;2023-12-29T08:24:46;26.75;;;5.45;;
51374;SDS011;37465;52.738;4.752;2023-12-29T08:27:14;28.90;;;5.00;;
51374;SDS011;37465;52.738;4.752;2023-12-29T08:29:43;23.85;;;4.70;;
51374;SDS011;37465;52.738;4.752;2023-12-29T08:32:10;19.17;;;4.30;;
51374;SDS011;37465;52.738;4.752;2023-12-29T08:34:38;23.27;;;4.57;;
51374;SDS011;37465;52.738;4.752;2023-12-29T08:37:05;22.25;;;3.80;;
51374;SDS011;37465;52.738;4.752;2023-12-29T08:39:33;23.65;;;3.83;;
51374;SDS011;37465;52.738;4.752;2023-12-29T08:42:00;22.38;;;4.15;;
51374;SDS011;37465;52.738;4.752;2023-12-29T08:44:28;26.98;;;4.78;;
51374;SDS011;37465;52.738;4.752;2023-12-29T08:46:57;19.55;;;4.82;;
51374;SDS011;37465;52.738;4.752;2023-12-29T08:49:24;28.98;;;4.35;;
51374;SDS011;37465;52.738;4.752;2023-12-29T08:51:52;27.48;;;4.50;;
51374;SDS011;37465;52.738;4.752;2023-12-29T08:54:20;26.15;;;4.80;;
51374;SDS011;37465;52.738;4.752;2023-12-29T08:56:47;26.23;;;4.93;;
51374;SDS011;37465;52.738;4.752;2023-12-29T08:59:15;21.52;;;4.28;;
51374;SDS011;37465;52.738;4.752;2023-12-29T09:01:42;19.95;;;3.92;;
51374;SDS011;37465;52.738;4.752;2023-12-29T09:04:11;20.83;;;3.70;;
51374;SDS011;37465;52.738;4.752;2023-12-29T09:06:39;17.77;;;4.10;;
51374;SDS011;37465;52.738;4.752;2023-12-29T09:09:06;24.08;;;4.05;;
51374;SDS011;37465;52.738;4.752;2023-12-29T09:11:38;18.48;;;3.45;;
51374;SDS011;37465;52.738;4.752;2023-12-29T09:14:06;20.30;;;3.47;;
51374;SDS011;37465;52.738;4.752;2023-12-29T09:16:34;21.00;;;3.45;;
51374;SDS011;37465;52.738;4.752;2023-12-29T09:19:02;23.02;;;3.60;;
51374;SDS011;37465;52.738;4.752;2023-12-29T09:21:44;21.20;;;4.03;;
51374;SDS011;37465;52.738;4.752;2023-12-29T09:24:12;18.45;;;3.42;;
51374;SDS011;37465;52.738;4.752;2023-12-29T09:26:39;21.65;;;3.58;;
51374;SDS011;37465;52.738;4.752;2023-12-29T09:29:07;16.83;;;3.83;;
51374;SDS011;37465;52.738;4.752;2023-12-29T09:31:35;21.95;;;3.28;;
51374;SDS011;37465;52.738;4.752;2023-12-29T09:34:03;17.08;;;3.47;;
51374;SDS011;37465;52.738;4.752;2023-12-29T09:36:30;25.27;;;4.07;;
51374;SDS011;37465;52.738;4.752;2023-12-29T09:38:59;17.48;;;2.80;;
51374;SDS011;37465;52.738;4.752;2023-12-29T09:41:27;16.80;;;2.90;;
51374;SDS011;37465;52.738;4.752;2023-12-29T09:43:55;17.45;;;3.00;;
51374;SDS011;37465;52.738;4.752;2023-12-29T09:46:23;20.15;;;4.07;;
51374;SDS011;37465;52.738;4.752;2023-12-29T09:48:52;17.20;;;3.53;;
51374;SDS011;37465;52.738;4.752;2023-12-29T09:51:20;20.15;;;4.63;;
51374;SDS011;37465;52.738;4.752;2023-12-29T09:53:49;16.08;;;3.40;;
51374;SDS011;37465;52.738;4.752;2023-12-29T09:56:20;13.50;;;2.72;;
51374;SDS011;37465;52.738;4.752;2023-12-29T09:58:47;21.02;;;3.63;;
51374;SDS011;37465;52.738;4.752;2023-12-29T10:01:16;18.02;;;3.03;;
51374;SDS011;37465;52.738;4.752;2023-12-29T10:03:44;16.13;;;2.88;;
51374;SDS011;37465;52.738;4.752;2023-12-29T10:06:15;15.60;;;2.72;;
51374;SDS011;37465;52.738;4.752;2023-12-29T10:08:44;16.30;;;2.92;;
51374;SDS011;37465;52.738;4.752;2023-12-29T10:11:12;15.10;;;3.33;;
51374;SDS011;37465;52.738;4.752;2023-12-29T10:13:42;15.20;;;2.70;;
51374;SDS011;37465;52.738;4.752;2023-12-29T10:16:13;13.07;;;2.75;;
51374;SDS011;37465;52.738;4.752;2023-12-29T10:18:45;17.02;;;3.60;;
51374;SDS011;37465;52.738;4.752;2023-12-29T10:21:16;19.83;;;3.75;;
51374;SDS011;37465;52.738;4.752;2023-12-29T10:23:47;22.52;;;3.92;;
51374;SDS011;37465;52.738;4.752;2023-12-29T10:26:17;22.65;;;3.63;;
51374;SDS011;37465;52.738;4.752;2023-12-29T10:28:47;24.50;;;3.60;;
51374;SDS011;37465;52.738;4.752;2023-12-29T10:31:15;15.48;;;2.50;;
51374;SDS011;37465;52.738;4.752;2023-12-29T10:33:43;21.02;;;3.00;;
51374;SDS011;37465;52.738;4.752;2023-12-29T10:36:17;18.60;;;3.70;;
51374;SDS011;37465;52.738;4.752;2023-12-29T10:38:44;13.10;;;3.40;;
51374;SDS011;37465;52.738;4.752;2023-12-29T10:41:12;13.48;;;3.05;;
51374;SDS011;37465;52.738;4.752;2023-12-29T10:43:40;15.20;;;3.47;;
51374;SDS011;37465;52.738;4.752;2023-12-29T10:46:10;17.73;;;3.35;;
51374;SDS011;37465;52.738;4.752;2023-12-29T10:48:38;18.98;;;2.72;;
51374;SDS011;37465;52.738;4.752;2023-12-29T10:51:06;17.75;;;3.20;;
51374;SDS011;37465;52.738;4.752;2023-12-29T10:53:36;14.70;;;2.92;;
51374;SDS011;37465;52.738;4.752;2023-12-29T10:56:10;18.55;;;3.25;;
51374;SDS011;37465;52.738;4.752;2023-12-29T10:58:46;22.75;;;3.47;;
51374;SDS011;37465;52.738;4.752;2023-12-29T11:01:25;20.35;;;4.50;;
51374;SDS011;37465;52.738;4.752;2023-12-29T11:03:59;19.98;;;3.50;;
51374;SDS011;37465;52.738;4.752;2023-12-29T11:06:27;17.30;;;3.55;;
51374;SDS011;37465;52.738;4.752;2023-12-29T11:08:55;20.45;;;3.33;;
51374;SDS011;37465;52.738;4.752;2023-12-29T11:11:23;19.45;;;3.17;;
51374;SDS011;37465;52.738;4.752;2023-12-29T11:13:50;22.90;;;3.42;;
51374;SDS011;37465;52.738;4.752;2023-12-29T11:16:18;15.85;;;2.47;;
51374;SDS011;37465;52.738;4.752;2023-12-29T11:18:50;14.75;;;1.98;;
51374;SDS011;37465;52.738;4.752;2023-12-29T11:21:19;12.45;;;2.47;;
51374;SDS011;37465;52.738;4.752;2023-12-29T11:23:49;10.82;;;2.17;;
51374;SDS011;37465;52.738;4.752;2023-12-29T11:26:16;13.23;;;1.88;;
51374;SDS011;37465;52.738;4.752;2023-12-29T11:28:45;13.98;;;2.63;;
51374;SDS011;37465;52.738;4.752;2023-12-29T11:31:13;13.20;;;2.22;;
51374;SDS011;37465;52.738;4.752;2023-12-29T11:33:42;14.35;;;2.63;;
51374;SDS011;37465;52.738;4.752;2023-12-29T11:36:13;16.00;;;2.75;;
51374;SDS011;37465;52.738;4.752;2023-12-29T11:38:59;15.07;;;2.42;;
51374;SDS011;37465;52.738;4.752;2023-12-29T11:41:30;15.27;;;3.15;;
51374;SDS011;37465;52.738;4.752;2023-12-29T11:44:00;14.07;;;2.28;;
51374;SDS011;37465;52.738;4.752;2023-12-29T11:46:35;12.90;;;2.42;;
51374;SDS011;37465;52.738;4.752;2023-12-29T11:49:02;14.35;;;4.05;;
51374;SDS011;37465;52.738;4.752;2023-12-29T11:51:33;13.93;;;2.40;;
51374;SDS011;37465;52.738;4.752;2023-12-29T11:54:01;15.80;;;3.17;;
51374;SDS011;37465;52.738;4.752;2023-12-29T11:56:33;15.77;;;2.45;;
51374;SDS011;37465;52.738;4.752;2023-12-29T11:59:16;12.43;;;2.72;;
51374;SDS011;37465;52.738;4.752;2023-12-29T12:01:46;12.60;;;2.38;;
51374;SDS011;37465;52.738;4.752;2023-12-29T12:07:02;15.02;;;2.55;;
51374;SDS011;37465;52.738;4.752;2023-12-29T12:09:30;15.95;;;3.05;;
51374;SDS011;37465;52.738;4.752;2023-12-29T12:11:57;15.77;;;2.60;;
51374;SDS011;37465;52.738;4.752;2023-12-29T12:17:28;11.02;;;2.45;;
51374;SDS011;37465;52.738;4.752;2023-12-29T12:19:57;14.30;;;2.80;;
51374;SDS011;37465;52.738;4.752;2023-12-29T12:22:26;16.55;;;2.70;;
51374;SDS011;37465;52.738;4.752;2023-12-29T12:24:56;15.63;;;2.90;;
51374;SDS011;37465;52.738;4.752;2023-12-29T12:27:25;13.40;;;2.40;;
51374;SDS011;37465;52.738;4.752;2023-12-29T12:29:53;11.27;;;2.15;;
51374;SDS011;37465;52.738;4.752;2023-12-29T12:32:23;10.98;;;2.20;;
51374;SDS011;37465;52.738;4.752;2023-12-29T12:34:50;11.15;;;2.47;;
51374;SDS011;37465;52.738;4.752;2023-12-29T12:37:18;16.95;;;2.67;;
51374;SDS011;37465;52.738;4.752;2023-12-29T12:39:47;15.70;;;2.85;;
51374;SDS011;37465;52.738;4.752;2023-12-29T12:42:15;17.73;;;2.63;;
51374;SDS011;37465;52.738;4.752;2023-12-29T12:44:46;15.90;;;2.47;;
51374;SDS011;37465;52.738;4.752;2023-12-29T12:47:17;13.73;;;2.35;;
51374;SDS011;37465;52.738;4.752;2023-12-29T12:49:46;16.30;;;2.15;;
51374;SDS011;37465;52.738;4.752;2023-12-29T12:52:13;18.50;;;3.63;;
51374;SDS011;37465;52.738;4.752;2023-12-29T12:54:41;13.82;;;3.53;;
51374;SDS011;37465;52.738;4.752;2023-12-29T12:57:10;15.05;;;2.72;;
51374;SDS011;37465;52.738;4.752;2023-12-29T12:59:38;17.63;;;2.80;;
51374;SDS011;37465;52.738;4.752;2023-12-29T13:02:06;15.88;;;2.50;;
51374;SDS011;37465;52.738;4.752;2023-12-29T13:04:38;12.02;;;2.42;;
51374;SDS011;37465;52.738;4.752;2023-12-29T13:07:06;11.85;;;2.85;;
51374;SDS011;37465;52.738;4.752;2023-12-29T13:09:35;12.80;;;2.20;;
51374;SDS011;37465;52.738;4.752;2023-12-29T13:12:11;15.48;;;2.15;;
51374;SDS011;37465;52.738;4.752;2023-12-29T13:14:39;12.30;;;2.78;;
51374;SDS011;37465;52.738;4.752;2023-12-29T13:17:07;12.60;;;2.25;;
51374;SDS011;37465;52.738;4.752;2023-12-29T13:19:36;17.73;;;2.85;;
51374;SDS011;37465;52.738;4.752;2023-12-29T13:22:05;16.63;;;3.17;;
51374;SDS011;37465;52.738;4.752;2023-12-29T13:24:34;12.50;;;2.47;;
51374;SDS011;37465;52.738;4.752;2023-12-29T13:27:04;23.60;;;3.15;;
51374;SDS011;37465;52.738;4.752;2023-12-29T13:29:33;10.98;;;2.20;;
51374;SDS011;37465;52.738;4.752;2023-12-29T13:32:04;15.55;;;2.25;;
51374;SDS011;37465;52.738;4.752;2023-12-29T13:34:33;15.50;;;2.92;;
51374;SDS011;37465;52.738;4.752;2023-12-29T13:37:05;11.82;;;1.73;;
51374;SDS011;37465;52.738;4.752;2023-12-29T13:39:35;17.95;;;2.88;;
51374;SDS011;37465;52.738;4.752;2023-12-29T13:42:03;15.25;;;2.50;;
51374;SDS011;37465;52.738;4.752;2023-12-29T13:44:33;15.13;;;2.37;;
51374;SDS011;37465;52.738;4.752;2023-12-29T13:47:02;17.85;;;3.30;;
51374;SDS011;37465;52.738;4.752;2023-12-29T13:49:30;13.52;;;2.33;;
51374;SDS011;37465;52.738;4.752;2023-12-29T13:52:01;15.40;;;2.75;;
51374;SDS011;37465;52.738;4.752;2023-12-29T13:54:29;16.23;;;2.70;;
51374;SDS011;37465;52.738;4.752;2023-12-29T13:56:56;16.55;;;2.92;;
51374;SDS011;37465;52.738;4.752;2023-12-29T13:59:30;15.15;;;2.53;;
51374;SDS011;37465;52.738;4.752;2023-12-29T14:02:02;12.13;;;2.80;;
51374;SDS011;37465;52.738;4.752;2023-12-29T14:04:30;17.00;;;3.08;;
51374;SDS011;37465;52.738;4.752;2023-12-29T14:06:59;20.10;;;2.38;;
51374;SDS011;37465;52.738;4.752;2023-12-29T14:09:28;9.88;;;2.38;;
51374;SDS011;37465;52.738;4.752;2023-12-29T14:11:56;14.60;;;2.97;;
51374;SDS011;37465;52.738;4.752;2023-12-29T14:14:24;14.40;;;2.97;;
51374;SDS011;37465;52.738;4.752;2023-12-29T14:16:51;13.50;;;3.22;;
51374;SDS011;37465;52.738;4.752;2023-12-29T14:19:20;12.48;;;2.28;;
51374;SDS011;37465;52.738;4.752;2023-12-29T14:21:49;16.65;;;2.63;;
51374;SDS011;37465;52.738;4.752;2023-12-29T14:24:18;9.10;;;2.20;;
51374;SDS011;37465;52.738;4.752;2023-12-29T14:26:53;17.48;;;2.95;;
51374;SDS011;37465;52.738;4.752;2023-12-29T14:29:22;16.25;;;2.30;;
51374;SDS011;37465;52.738;4.752;2023-12-29T14:31:50;13.88;;;2.45;;
51374;SDS011;37465;52.738;4.752;2023-12-29T14:34:18;17.40;;;2.55;;
51374;SDS011;37465;52.738;4.752;2023-12-29T14:36:48;12.63;;;2.20;;
51374;SDS011;37465;52.738;4.752;2023-12-29T14:39:15;9.73;;;1.90;;
51374;SDS011;37465;52.738;4.752;2023-12-29T14:41:43;12.23;;;2.15;;
51374;SDS011;37465;52.738;4.752;2023-12-29T14:44:11;17.15;;;2.15;;
51374;SDS011;37465;52.738;4.752;2023-12-29T14:46:39;10.38;;;2.13;;
51374;SDS011;37465;52.738;4.752;2023-12-29T14:49:06;13.80;;;2.28;;
51374;SDS011;37465;52.738;4.752;2023-12-29T14:51:35;12.43;;;2.15;;